Time;durP1;ratioP1;P1;durP2;ratioP2;P2;SDS_P1;SDS_P2;PMS_P1;PMS_P2;Temp;Humidity;BMP_temperature;BMP_pressure;BME280_temperature;BME280_humidity;BME280_pressure;Samples;Min_cycle;Max_cycle;Signal;HPM_P1;HPM_P2
2023/06/28 00:01:12;;;;;;;3.45;0.45;;;;;;;14.08;69.14;97833.44;10415948;28;20550;-74
2023/06/28 00:06:33;;;;;;;1.35;0.60;;;;;;;14.15;68.92;97826.81;10484424;28;20048;-74
2023/06/28 00:11:54;;;;;;;1.00;0.50;;;;;;;14.16;68.81;97825.47;10484408;28;20036;-74
2023/06/28 00:17:15;;;;;;;2.17;0.50;;;;;;;14.08;69.59;97825.00;10470224;28;20049;-74
2023/06/28 00:22:39;;;;;;;3.20;0.55;;;;;;;14.06;69.25;97819.28;10483808;28;20508;-74
2023/06/28 00:28:00;;;;;;;0.95;0.50;;;;;;;14.00;69.32;97814.81;10470298;28;20052;-75
2023/06/28 00:33:21;;;;;;;1.55;0.50;;;;;;;13.91;69.71;97804.50;10483536;28;20048;-74
2023/06/28 00:38:41;;;;;;;1.40;0.57;;;;;;;13.86;69.46;97802.81;10483143;28;20071;-74
2023/06/28 00:44:05;;;;;;;2.42;0.70;;;;;;;13.94;69.38;97822.91;10469498;28;20055;-74
2023/06/28 00:49:27;;;;;;;1.00;0.50;;;;;;;14.07;69.20;97831.97;10482934;28;20044;-74
2023/06/28 00:54:48;;;;;;;1.75;0.63;;;;;;;14.11;68.86;97826.59;10482840;28;20128;-74
2023/06/28 01:00:12;;;;;;;1.38;0.50;;;;;;;14.07;68.81;97823.56;10482908;28;20044;-74
2023/06/28 01:05:34;;;;;;;2.53;0.65;;;;;;;13.94;68.70;97822.91;10448964;28;20072;-75
2023/06/28 01:10:56;;;;;;;1.40;0.68;;;;;;;13.88;68.97;97825.34;10427113;28;20504;-74
2023/06/28 01:16:17;;;;;;;2.45;0.68;;;;;;;13.89;69.17;97824.00;10413970;28;20052;-74
2023/06/28 01:21:41;;;;;;;3.88;0.73;;;;;;;13.86;69.08;97824.50;10455012;28;20041;-74
2023/06/28 01:27:05;;;;;;;1.88;0.52;;;;;;;13.81;69.19;97826.38;10427061;28;20041;-74
2023/06/28 01:32:26;;;;;;;1.63;0.60;;;;;;;13.78;69.14;97827.59;10413654;28;20052;-74
2023/06/28 01:37:47;;;;;;;6.18;0.88;;;;;;;13.74;69.30;97825.28;10440629;28;20056;-74
2023/06/28 01:43:09;;;;;;;1.73;0.63;;;;;;;13.84;69.30;97835.63;10440618;28;20108;-74
2023/06/28 01:48:30;;;;;;;1.08;0.50;;;;;;;14.01;69.40;97838.72;10440261;28;20442;-74
2023/06/28 01:53:51;;;;;;;1.70;0.52;;;;;;;14.10;69.02;97836.38;10446605;28;20045;-74
2023/06/28 01:59:11;;;;;;;3.92;0.73;;;;;;;14.19;69.08;97839.00;10434792;28;20115;-74
2023/06/28 02:04:32;;;;;;;2.03;0.65;;;;;;;14.18;68.56;97831.91;10448106;28;20414;-74
2023/06/28 02:09:53;;;;;;;6.18;0.80;;;;;;;14.10;68.79;97817.47;10448087;28;20052;-74
2023/06/28 02:15:14;;;;;;;1.33;0.70;;;;;;;13.93;68.79;97817.91;10447600;28;20068;-75
2023/06/28 02:20:34;;;;;;;1.27;0.60;;;;;;;13.75;69.00;97823.94;10447532;28;20068;-74
2023/06/28 02:25:56;;;;;;;2.53;1.00;;;;;;;13.50;69.70;97815.50;10447453;28;20049;-74
2023/06/28 02:31:19;;;;;;;1.65;0.50;;;;;;;13.36;70.08;97815.41;10447123;28;20056;-74
2023/06/28 02:36:40;;;;;;;3.80;1.00;;;;;;;13.27;71.08;97826.78;10461059;28;20411;-74
2023/06/28 02:42:00;;;;;;;2.88;1.02;;;;;;;13.28;70.92;97834.56;10446562;28;20049;-74
2023/06/28 02:47:21;;;;;;;2.60;0.82;;;;;;;13.41;71.05;97836.75;10446563;28;20048;-74
2023/06/28 02:52:42;;;;;;;1.90;0.77;;;;;;;13.47;70.87;97844.78;10432296;28;20056;-74
2023/06/28 02:58:05;;;;;;;2.35;0.85;;;;;;;13.53;71.91;97847.19;10445888;28;20040;-74
2023/06/28 03:03:33;;;;;;;2.20;0.63;;;;;;;13.62;72.26;97846.31;10444113;28;20119;-75
2023/06/28 03:08:55;;;;;;;2.45;0.90;;;;;;;13.69;71.97;97842.50;10445723;28;20041;-74
2023/06/28 03:14:16;;;;;;;5.13;0.75;;;;;;;13.75;72.31;97848.47;10431545;28;20071;-74
2023/06/28 03:19:38;;;;;;;4.28;0.77;;;;;;;13.71;72.19;97848.25;10431262;28;20439;-74
2023/06/28 03:24:59;;;;;;;4.53;0.70;;;;;;;13.73;72.40;97851.91;10458964;28;20438;-74
2023/06/28 03:30:20;;;;;;;2.00;0.80;;;;;;;13.90;72.69;97853.53;10444571;28;20368;-75
2023/06/28 03:35:41;;;;;;;2.20;0.60;;;;;;;14.06;72.48;97856.50;10430646;28;20459;-74
2023/06/28 03:41:02;;;;;;;1.75;0.70;;;;;;;14.20;72.18;97853.78;10444302;28;20051;-74
2023/06/28 03:46:23;;;;;;;1.80;0.70;;;;;;;14.28;71.68;97859.81;10444250;28;20041;-74
2023/06/28 03:51:44;;;;;;;3.10;1.10;;;;;;;14.37;71.66;97867.34;10444033;28;20049;-74
2023/06/28 03:57:06;;;;;;;4.68;0.60;;;;;;;14.44;71.55;97868.41;10443594;28;20395;-74
2023/06/28 04:02:27;;;;;;;5.40;1.15;;;;;;;14.50;71.62;97861.06;10429527;28;20554;-74
2023/06/28 04:07:54;;;;;;;2.10;1.00;;;;;;;14.50;71.31;97855.44;10429491;28;20467;-74
2023/06/28 04:13:15;;;;;;;3.67;0.90;;;;;;;14.52;70.98;97854.81;10443599;28;20051;-75
2023/06/28 04:18:36;;;;;;;1.25;0.50;;;;;;;14.56;70.59;97857.84;10443105;28;20051;-75
2023/06/28 04:23:57;;;;;;;2.03;0.70;;;;;;;14.58;70.45;97867.13;10442589;28;20045;-74
2023/06/28 04:29:17;;;;;;;2.60;0.50;;;;;;;14.77;70.09;97870.91;10428822;28;20127;-75
2023/06/28 04:34:41;;;;;;;2.50;0.75;;;;;;;14.91;69.83;97880.09;10442597;28;20041;-74
2023/06/28 04:40:04;;;;;;;1.67;0.70;;;;;;;15.15;68.99;97884.19;10442131;28;20048;-74
2023/06/28 04:46:32;;;;;;;2.80;0.70;;;;;;;15.30;68.44;97882.09;10428390;28;20049;-75
2023/06/28 04:51:54;;;;;;;1.77;0.77;;;;;;;15.63;68.69;97890.84;10456545;28;20036;-74
2023/06/28 04:57:15;;;;;;;3.33;0.68;;;;;;;15.98;67.54;97898.16;10441609;28;20048;-74
2023/06/28 05:02:36;;;;;;;2.60;0.80;;;;;;;16.31;66.35;97875.84;10456248;28;20049;-74
2023/06/28 05:07:59;;;;;;;2.20;0.60;;;;;;;16.67;65.74;97875.34;10441349;28;20399;-74
2023/06/28 05:13:20;;;;;;;6.67;0.77;;;;;;;17.05;64.61;97870.72;10441030;28;20045;-74
2023/06/28 05:18:41;;;;;;;3.05;0.93;;;;;;;17.21;63.55;97876.34;10441087;28;20045;-74
2023/06/28 05:24:02;;;;;;;3.80;0.90;;;;;;;17.20;62.84;97881.28;10440920;28;20510;-74
2023/06/28 05:29:23;;;;;;;4.20;0.95;;;;;;;17.66;62.02;97878.97;10461979;28;20045;-74
2023/06/28 05:34:43;;;;;;;3.22;0.70;;;;;;;18.09;59.89;97878.66;10449135;28;20064;-74
2023/06/28 05:40:05;;;;;;;4.78;0.80;;;;;;;18.33;59.85;97893.03;10449047;28;20044;-75
2023/06/28 05:45:26;;;;;;;2.17;0.80;;;;;;;18.73;58.44;97890.34;10448594;28;20055;-74
2023/06/28 05:50:47;;;;;;;4.03;0.82;;;;;;;18.86;57.37;97898.63;10448468;28;20044;-74
2023/06/28 05:56:08;;;;;;;3.50;1.05;;;;;;;18.88;56.87;97907.19;10447869;28;20048;-74
2023/06/28 06:01:29;;;;;;;5.90;1.08;;;;;;;18.95;56.00;97908.16;10433910;28;20048;-73
2023/06/28 06:06:49;;;;;;;4.13;0.68;;;;;;;19.10;56.05;97904.47;10433624;28;20099;-75
2023/06/28 06:12:10;;;;;;;4.05;1.10;;;;;;;19.04;55.85;97912.00;10447209;28;20052;-75
2023/06/28 06:17:31;;;;;;;3.05;0.90;;;;;;;19.02;55.95;97904.19;10433612;28;20072;-75
2023/06/28 06:22:51;;;;;;;2.42;0.70;;;;;;;20.23;54.88;97906.22;10433422;28;20056;-75
2023/06/28 06:28:12;;;;;;;5.50;0.88;;;;;;;20.85;53.26;97913.16;10447119;28;20068;-75
2023/06/28 06:33:35;;;;;;;2.85;0.60;;;;;;;21.53;52.58;97920.75;10460453;28;20489;-74
2023/06/28 06:38:56;;;;;;;5.65;0.85;;;;;;;22.41;49.47;97915.91;10446536;28;20041;-74
2023/06/28 06:44:17;;;;;;;2.38;0.50;;;;;;;23.34;48.40;97911.53;10432659;28;20053;-74
2023/06/28 06:49:38;;;;;;;6.32;1.13;;;;;;;24.05;44.68;97914.31;10446014;28;20037;-74
2023/06/28 06:54:59;;;;;;;4.95;0.80;;;;;;;24.83;44.12;97917.69;10446026;28;20040;-75
2023/06/28 07:00:20;;;;;;;3.20;0.63;;;;;;;25.96;42.51;97911.91;10432211;28;20044;-74
2023/06/28 07:05:41;;;;;;;8.82;2.80;;;;;;;26.25;40.31;97909.31;10460390;28;20506;-74
2023/06/28 07:11:02;;;;;;;3.85;0.73;;;;;;;26.58;38.86;97910.28;10445085;28;20045;-74
2023/06/28 07:16:23;;;;;;;3.13;0.60;;;;;;;26.60;37.49;97921.00;10431716;28;20040;-74
2023/06/28 07:21:44;;;;;;;8.23;0.90;;;;;;;26.80;37.01;97903.97;10430893;28;20068;-74
2023/06/28 07:27:05;;;;;;;5.03;0.70;;;;;;;27.17;35.29;97921.38;10459765;28;20045;-74
2023/06/28 07:32:26;;;;;;;4.35;0.80;;;;;;;24.77;35.60;97929.00;10444724;28;20402;-74
2023/06/28 07:37:47;;;;;;;4.33;0.70;;;;;;;23.06;37.63;97930.91;10458326;28;20063;-74
2023/06/28 07:43:08;;;;;;;4.05;0.65;;;;;;;23.63;37.83;97932.06;10459128;28;20048;-74
2023/06/28 07:48:29;;;;;;;2.75;0.50;;;;;;;24.50;37.12;97927.16;10443240;28;20045;-74
2023/06/28 07:53:50;;;;;;;1.83;0.32;;;;;;;26.17;36.47;97935.69;10457810;28;20045;-74
2023/06/28 07:59:11;;;;;;;5.00;0.70;;;;;;;27.44;34.09;97927.94;10457453;28;20406;-74
2023/06/28 08:04:32;;;;;;;3.92;0.50;;;;;;;28.38;32.52;97926.00;10443486;28;20089;-74
2023/06/28 08:09:52;;;;;;;4.43;0.55;;;;;;;29.16;31.03;97920.84;10458344;28;20506;-75
2023/06/28 08:15:13;;;;;;;5.40;0.70;;;;;;;28.82;30.56;97930.25;10442779;28;20073;-75
2023/06/28 08:20:34;;;;;;;2.50;0.60;;;;;;;28.57;29.52;97915.94;10429083;28;20049;-75
2023/06/28 08:25:55;;;;;;;3.13;0.70;;;;;;;28.45;29.99;97913.78;10457411;28;20041;-74
2023/06/28 08:31:16;;;;;;;3.08;0.43;;;;;;;28.80;29.84;97920.19;10442450;28;20049;-74
2023/06/28 08:36:36;;;;;;;2.08;0.47;;;;;;;29.05;27.11;97918.00;10441736;28;20483;-74
2023/06/28 08:41:58;;;;;;;1.80;0.50;;;;;;;28.65;28.28;97915.19;10442176;28;20436;-76
2023/06/28 08:47:19;;;;;;;3.00;0.67;;;;;;;28.08;28.34;97910.16;10441602;28;20041;-75
2023/06/28 08:52:39;;;;;;;3.95;0.60;;;;;;;28.23;29.06;97908.03;10441629;28;20084;-74
2023/06/28 08:58:00;;;;;;;3.97;0.70;;;;;;;29.32;27.83;97898.50;10441594;28;20483;-74
2023/06/28 09:03:21;;;;;;;2.75;0.75;;;;;;;29.41;27.05;97892.72;10441308;28;20060;-75
2023/06/28 09:08:43;;;;;;;2.67;0.60;;;;;;;28.61;27.24;97901.56;10441366;28;20041;-75
2023/06/28 09:14:04;;;;;;;3.53;0.80;;;;;;;28.12;27.75;97895.81;10427544;28;20618;-74
2023/06/28 09:19:25;;;;;;;4.00;0.80;;;;;;;27.95;27.33;97894.38;10440879;28;20044;-74
2023/06/28 09:24:48;;;;;;;4.60;0.90;;;;;;;27.30;27.81;97894.19;10455649;28;20049;-74
2023/06/28 09:30:09;;;;;;;1.60;0.70;;;;;;;28.21;28.13;97897.25;10440814;28;20147;-74
2023/06/28 09:35:30;;;;;;;2.73;0.53;;;;;;;28.67;26.83;97895.09;10454957;28;20045;-75
2023/06/28 09:40:58;;;;;;;3.53;0.70;;;;;;;29.13;26.57;97900.00;10454658;28;20088;-75
2023/06/28 09:46:19;;;;;;;4.03;0.60;;;;;;;28.82;25.87;97896.50;10427088;28;20041;-75
2023/06/28 09:51:40;;;;;;;5.18;0.60;;;;;;;29.30;26.14;97883.41;10454358;28;20037;-75
2023/06/28 09:57:01;;;;;;;4.72;0.38;;;;;;;30.18;25.15;97875.69;10440091;28;20111;-74
2023/06/28 10:02:22;;;;;;;3.05;0.60;;;;;;;30.11;24.43;97862.81;10440161;28;20392;-75
2023/06/28 10:07:43;;;;;;;;;;;;;;;30.17;24.55;97871.38;10427147;28;20471;-74
2023/06/28 10:13:10;;;;;;;1.90;0.40;;;;;;;30.17;24.19;97870.69;10429407;28;20252;-75
2023/06/28 10:18:31;;;;;;;2.83;0.60;;;;;;;30.06;24.13;97857.78;10447934;28;20049;-75
2023/06/28 10:23:51;;;;;;;1.92;0.40;;;;;;;29.59;24.50;97866.75;10433612;28;20048;-75
2023/06/28 10:29:12;;;;;;;2.67;0.50;;;;;;;29.62;24.40;97866.00;10433431;28;20048;-74
2023/06/28 10:34:34;;;;;;;3.15;0.50;;;;;;;29.52;24.09;97862.47;10433212;28;20045;-75
2023/06/28 10:39:56;;;;;;;2.58;0.40;;;;;;;29.93;24.25;97857.19;10432907;28;20041;-74
2023/06/28 10:45:17;;;;;;;1.83;0.43;;;;;;;30.34;23.78;97848.22;10446321;28;20045;-75
2023/06/28 10:50:41;;;;;;;3.28;0.35;;;;;;;30.35;23.13;97849.66;10446342;28;20049;-75
2023/06/28 10:56:11;;;;;;;1.50;0.40;;;;;;;30.30;23.17;97854.72;10432344;28;20047;-75
2023/06/28 11:01:53;;;;;;;1.75;0.40;;;;;;;29.58;23.29;97854.53;10445854;28;20180;-74
2023/06/28 11:07:16;;;;;;;2.78;0.45;;;;;;;29.85;23.45;97837.81;10448366;28;20045;-74
2023/06/28 11:12:38;;;;;;;2.83;0.60;;;;;;;29.24;23.20;97848.94;10445802;28;20045;-74
2023/06/28 11:18:18;;;;;;;3.58;0.40;;;;;;;29.98;23.18;97844.19;10431600;28;20051;-75
2023/06/28 11:23:40;;;;;;;4.25;0.50;;;;;;;30.48;23.25;97854.53;10444151;28;20073;-75
2023/06/28 11:29:00;;;;;;;;;;;;;;;29.84;22.37;97839.25;10431320;28;20049;-75
2023/06/28 11:34:22;;;;;;;4.80;0.50;;;;;;;27.77;24.08;97848.47;10444698;28;19921;-75
2023/06/28 11:39:44;;;;;;;4.10;0.50;;;;;;;27.77;25.06;97859.94;10444244;28;20545;-74
2023/06/28 11:45:05;;;;;;;2.13;0.38;;;;;;;27.93;24.88;97862.84;10430533;28;20049;-74
2023/06/28 11:50:27;;;;;;;3.67;0.60;;;;;;;29.21;24.23;97859.75;10443832;28;20044;-75
2023/06/28 11:55:47;;;;;;;4.73;0.30;;;;;;;28.47;23.67;97855.63;10416062;28;20036;-75
2023/06/28 12:01:19;;;;;;;2.28;0.57;;;;;;;28.86;23.77;97838.34;10429762;28;20056;-75
2023/06/28 12:06:41;;;;;;;3.58;0.50;;;;;;;29.00;23.38;97835.41;10484291;28;20044;-75
2023/06/28 12:12:05;;;;;;;2.65;0.40;;;;;;;29.38;23.08;97836.66;10456624;28;20040;-74
2023/06/28 12:17:25;;;;;;;1.60;0.40;;;;;;;28.95;22.83;97828.25;10456477;28;20040;-75
2023/06/28 12:22:46;;;;;;;2.72;0.38;;;;;;;29.05;22.88;97825.34;10483936;28;20048;-75
2023/06/28 12:28:08;;;;;;;1.40;0.22;;;;;;;29.35;22.80;97828.06;10483427;28;20047;-75
2023/06/28 12:33:35;;;;;;;2.63;0.40;;;;;;;29.84;22.37;97813.38;10498352;28;20482;-75
2023/06/28 12:38:55;;;;;;;4.55;0.90;;;;;;;29.70;22.33;97813.47;10483193;28;20033;-75
2023/06/28 12:44:18;;;;;;;2.88;0.30;;;;;;;29.77;22.41;97817.75;10469337;28;20044;-74
2023/06/28 12:49:39;;;;;;;2.72;0.40;;;;;;;29.79;21.70;97814.84;10469209;28;20094;-75
2023/06/28 12:55:00;;;;;;;1.70;0.30;;;;;;;29.51;22.25;97826.53;10482570;28;20052;-76
2023/06/28 13:00:21;;;;;;;1.13;0.28;;;;;;;30.00;21.77;97814.66;10482522;28;20040;-75
2023/06/28 13:05:42;;;;;;;3.72;0.75;;;;;;;29.96;21.47;97814.72;10433907;28;20442;-75
2023/06/28 13:11:03;;;;;;;2.83;0.30;;;;;;;29.51;21.05;97815.03;10426920;28;20049;-75
2023/06/28 13:16:24;;;;;;;1.48;0.40;;;;;;;28.69;21.65;97829.75;10441218;28;20045;-75
2023/06/28 13:21:46;;;;;;;4.50;0.57;;;;;;;28.75;21.65;97814.66;10440818;28;20490;-75
2023/06/28 13:27:07;;;;;;;3.15;0.40;;;;;;;27.87;21.97;97816.94;10410712;28;20749;-75
2023/06/28 13:32:28;;;;;;;5.40;0.43;;;;;;;26.93;22.87;97825.28;10426781;28;20051;-74
2023/06/28 13:37:50;;;;;;;4.50;0.50;;;;;;;27.02;23.17;97821.06;10440567;28;20064;-75
2023/06/28 13:43:10;;;;;;;1.50;0.30;;;;;;;26.83;23.39;97822.38;10440450;28;20103;-74
2023/06/28 13:48:31;;;;;;;1.38;0.30;;;;;;;26.57;23.86;97807.94;10444270;28;20036;-75
2023/06/28 13:53:53;;;;;;;2.75;0.47;;;;;;;26.91;23.56;97810.94;10448592;28;20045;-75
2023/06/28 13:59:14;;;;;;;3.67;0.40;;;;;;;27.05;23.79;97804.59;10420910;28;20047;-75
2023/06/28 14:04:34;;;;;;;2.97;0.43;;;;;;;27.33;23.85;97803.97;10448291;28;20056;-74
2023/06/28 14:09:55;;;;;;;3.67;0.30;;;;;;;27.14;23.70;97808.22;10447702;28;20048;-74
2023/06/28 14:15:16;;;;;;;3.42;0.43;;;;;;;27.04;24.24;97809.59;10433808;28;20582;-74
2023/06/28 14:20:37;;;;;;;1.35;0.35;;;;;;;26.88;23.85;97803.06;10447168;28;20052;-75
2023/06/28 14:25:58;;;;;;;1.88;0.28;;;;;;;26.98;24.06;97805.97;10447204;28;20127;-75
2023/06/28 14:31:19;;;;;;;2.03;0.40;;;;;;;26.95;23.96;97799.53;10461004;28;20380;-74
2023/06/28 14:36:42;;;;;;;3.53;0.40;;;;;;;26.61;24.29;97799.38;10433014;28;20041;-75
2023/06/28 14:42:03;;;;;;;2.15;0.35;;;;;;;26.42;24.47;97801.41;10446655;28;20051;-74
2023/06/28 14:47:23;;;;;;;2.25;0.30;;;;;;;26.22;24.65;97790.53;10432553;28;20045;-74
2023/06/28 14:52:44;;;;;;;0.77;0.30;;;;;;;26.09;24.67;97789.03;10460026;28;20047;-74
2023/06/28 14:58:05;;;;;;;2.35;0.30;;;;;;;26.29;24.80;97791.31;10445658;28;20037;-75
2023/06/28 15:03:26;;;;;;;1.52;0.35;;;;;;;25.83;25.17;97804.56;10460747;28;20110;-75
2023/06/28 15:08:47;;;;;;;1.98;0.47;;;;;;;25.35;25.43;97796.22;10445848;28;20184;-74
2023/06/28 15:14:08;;;;;;;2.40;0.28;;;;;;;24.94;25.92;97795.06;10460041;28;20048;-74
2023/06/28 15:19:32;;;;;;;2.28;0.30;;;;;;;24.92;25.98;97789.34;10445596;28;20490;-74
2023/06/28 15:24:54;;;;;;;2.10;0.50;;;;;;;25.19;26.25;97796.81;10444993;28;20045;-74
2023/06/28 15:30:16;;;;;;;1.25;0.30;;;;;;;25.31;26.32;97788.34;10444487;28;20068;-74
2023/06/28 15:35:37;;;;;;;3.10;0.23;;;;;;;25.20;26.21;97791.81;10444337;28;20053;-74
2023/06/28 15:40:57;;;;;;;2.67;0.30;;;;;;;24.90;26.18;97795.75;10430607;28;20298;-75
2023/06/28 15:46:31;;;;;;;2.03;0.30;;;;;;;24.77;26.56;97799.84;10458417;28;20045;-74
2023/06/28 15:51:53;;;;;;;1.85;0.30;;;;;;;24.65;26.45;97794.00;10430675;28;20045;-74
2023/06/28 15:57:14;;;;;;;3.10;0.40;;;;;;;24.43;26.98;97792.28;10430009;28;20399;-74
2023/06/28 16:02:34;;;;;;;2.25;0.35;;;;;;;24.27;27.23;97784.19;10457820;28;20057;-74
2023/06/28 16:07:56;;;;;;;3.72;0.40;;;;;;;24.08;27.36;97793.91;10455460;28;20102;-74
2023/06/28 16:13:18;;;;;;;3.53;0.30;;;;;;;23.95;27.34;97786.56;10429961;28;20090;-76
2023/06/28 16:18:38;;;;;;;1.55;0.40;;;;;;;23.76;27.85;97796.25;10455128;28;20095;-79
2023/06/28 16:23:59;;;;;;;0.88;0.30;;;;;;;23.64;28.36;97797.50;10482571;28;20048;-71
2023/06/28 16:29:21;;;;;;;2.92;0.70;;;;;;;23.52;28.77;97794.38;10485493;28;20048;-73
2023/06/28 16:34:41;;;;;;;3.95;0.40;;;;;;;23.35;29.27;97792.66;10440616;28;20442;-74
2023/06/28 16:40:03;;;;;;;1.40;0.30;;;;;;;23.25;29.28;97798.16;10440383;28;20048;-74
2023/06/28 16:45:24;;;;;;;1.30;0.40;;;;;;;23.31;29.48;97815.38;10426876;28;20047;-74
2023/06/28 16:50:45;;;;;;;4.28;0.40;;;;;;;23.17;29.43;97818.69;10440357;28;20049;-74
2023/06/28 16:56:06;;;;;;;3.05;0.40;;;;;;;23.06;29.80;97809.22;10426465;28;20041;-74
2023/06/28 17:01:27;;;;;;;4.05;0.40;;;;;;;22.97;29.82;97819.00;10434610;28;20037;-74
2023/06/28 17:06:44;;;;;;;4.30;0.43;;;;;;;22.92;30.36;97828.16;10661055;27;20430;-74
2023/06/28 17:12:05;;;;;;;1.60;0.70;;;;;;;22.76;30.62;97828.50;10631472;27;20074;-74
2023/06/28 17:17:26;;;;;;;1.52;0.45;;;;;;;22.59;30.96;97829.56;10631100;27;20043;-74
2023/06/28 17:22:47;;;;;;;2.13;0.50;;;;;;;22.41;31.19;97833.47;10644990;27;20461;-73
2023/06/28 17:28:07;;;;;;;4.03;0.50;;;;;;;22.22;31.74;97837.28;10616599;27;20042;-73
2023/06/28 17:33:28;;;;;;;1.98;0.40;;;;;;;22.17;31.76;97839.28;10630665;27;20047;-73
2023/06/28 17:38:49;;;;;;;3.97;0.57;;;;;;;22.05;32.23;97841.81;10630444;27;20049;-73
2023/06/28 17:44:10;;;;;;;3.20;0.40;;;;;;;21.93;32.40;97847.94;10644349;27;20043;-73
2023/06/28 17:49:30;;;;;;;2.15;0.50;;;;;;;21.72;33.34;97854.53;10644337;27;20050;-73
2023/06/28 17:54:51;;;;;;;1.73;0.40;;;;;;;21.60;33.51;97848.50;10659340;27;20064;-73
2023/06/28 18:00:13;;;;;;;4.13;0.50;;;;;;;21.47;34.03;97850.31;10629643;27;20096;-73
2023/06/28 18:05:36;;;;;;;4.03;0.82;;;;;;;21.38;34.26;97857.19;10629310;27;20083;-74
2023/06/28 18:10:57;;;;;;;3.22;0.60;;;;;;;21.26;34.84;97848.31;10643535;27;20472;-74
2023/06/28 18:16:19;;;;;;;2.22;0.40;;;;;;;21.15;34.85;97867.19;10610575;27;20408;-73
2023/06/28 18:21:40;;;;;;;3.83;0.50;;;;;;;21.05;35.25;97869.72;10586252;27;20039;-73
2023/06/28 18:27:01;;;;;;;1.88;0.40;;;;;;;20.92;35.49;97867.91;10614617;27;20442;-73
2023/06/28 18:32:23;;;;;;;4.70;0.60;;;;;;;20.69;35.79;97870.13;10613868;27;20047;-73
2023/06/28 18:37:44;;;;;;;2.38;0.40;;;;;;;20.53;36.43;97869.63;10614089;27;20423;-73
2023/06/28 18:43:04;;;;;;;2.15;0.45;;;;;;;20.34;36.64;97871.13;10598927;27;20039;-73
2023/06/28 18:48:25;;;;;;;1.58;0.50;;;;;;;20.19;37.12;97869.25;10599264;27;20045;-73
2023/06/28 18:53:46;;;;;;;4.13;0.50;;;;;;;20.05;37.47;97880.84;10584529;27;20039;-73
2023/06/28 18:59:08;;;;;;;5.57;0.90;;;;;;;19.90;37.76;97879.66;10570883;27;20053;-73
2023/06/28 19:04:29;;;;;;;3.45;0.70;;;;;;;19.67;38.45;97888.78;10584989;27;20126;-73
2023/06/28 19:09:50;;;;;;;6.28;0.60;;;;;;;19.50;38.63;97886.78;10598220;27;20047;-73
2023/06/28 19:15:11;;;;;;;1.95;0.50;;;;;;;19.27;39.48;97891.63;10569978;27;20507;-73
2023/06/28 19:20:32;;;;;;;2.30;0.52;;;;;;;19.16;39.74;97893.38;10598219;27;20067;-73
2023/06/28 19:25:53;;;;;;;11.52;0.80;;;;;;;19.02;40.42;97886.50;10610821;27;20077;-73
2023/06/28 19:31:14;;;;;;;1.38;0.50;;;;;;;18.93;40.77;97893.22;10583385;27;20047;-73
2023/06/28 19:36:36;;;;;;;5.07;0.70;;;;;;;18.78;40.82;97901.16;10583588;27;20408;-73
2023/06/28 19:41:57;;;;;;;4.40;1.00;;;;;;;18.71;41.24;97910.06;10582931;27;20042;-73
2023/06/28 19:47:18;;;;;;;3.08;0.80;;;;;;;18.60;41.55;97912.47;10611085;27;20088;-73
2023/06/28 19:52:38;;;;;;;1.98;0.50;;;;;;;18.44;41.71;97909.03;10611023;27;20408;-73
2023/06/28 19:58:00;;;;;;;1.27;0.50;;;;;;;18.30;42.00;97917.66;10610534;27;20488;-73
2023/06/28 20:03:20;;;;;;;4.15;0.77;;;;;;;18.12;42.78;97910.53;10596149;27;20055;-73
2023/06/28 20:08:41;;;;;;;1.90;0.45;;;;;;;18.01;42.85;97912.94;10595898;27;20047;-73
2023/06/28 20:14:05;;;;;;;2.10;0.85;;;;;;;17.86;43.10;97924.31;10595715;27;20087;-73
2023/06/28 20:19:26;;;;;;;2.17;0.40;;;;;;;17.68;43.59;97916.50;10582169;27;20042;-73
2023/06/28 20:24:47;;;;;;;1.75;0.60;;;;;;;17.54;44.00;97917.97;10609560;27;20038;-73
2023/06/28 20:30:09;;;;;;;2.15;0.60;;;;;;;17.43;44.50;97931.66;10581162;27;20051;-75
2023/06/28 20:35:30;;;;;;;1.88;0.70;;;;;;;17.32;44.78;97932.56;10581211;27;20415;-74
2023/06/28 20:40:53;;;;;;;2.75;0.88;;;;;;;17.23;45.11;97933.59;10624360;27;20056;-75
2023/06/28 20:46:14;;;;;;;1.85;0.70;;;;;;;17.20;45.48;97932.06;10591051;27;20357;-85
2023/06/28 20:51:35;;;;;;;4.13;0.80;;;;;;;17.14;45.67;97937.41;10559725;27;20140;-75
2023/06/28 20:56:55;;;;;;;2.10;0.60;;;;;;;17.06;46.02;97937.75;10573738;27;20046;-73
2023/06/28 21:02:16;;;;;;;5.50;0.88;;;;;;;16.97;46.24;97940.84;10607215;28;20055;-73
2023/06/28 21:07:37;;;;;;;2.95;0.88;;;;;;;16.85;46.68;97933.31;10597901;28;20068;-73
2023/06/28 21:12:59;;;;;;;6.25;0.77;;;;;;;16.82;47.05;97934.56;10582014;28;20412;-73
2023/06/28 21:18:20;;;;;;;3.47;0.60;;;;;;;16.71;47.21;97941.13;10571637;28;20178;-73
2023/06/28 21:23:41;;;;;;;2.72;1.00;;;;;;;16.63;47.56;97946.34;10572491;28;20043;-73
2023/06/28 21:29:01;;;;;;;4.28;0.93;;;;;;;16.56;47.92;97953.03;10565737;28;20092;-71
2023/06/28 21:34:22;;;;;;;2.67;0.90;;;;;;;16.51;48.16;97945.78;10581769;28;20093;-74
2023/06/28 21:39:43;;;;;;;2.53;0.85;;;;;;;16.51;48.89;97945.78;10570348;28;20405;-73
2023/06/28 21:45:04;;;;;;;2.83;0.80;;;;;;;16.48;48.77;97944.19;10597918;28;20100;-73
2023/06/28 21:50:25;;;;;;;2.17;0.57;;;;;;;16.46;48.77;97938.47;10589173;27;20050;-73
2023/06/28 21:55:45;;;;;;;3.17;0.73;;;;;;;16.38;48.84;97950.06;10585468;27;20114;-81
2023/06/28 22:01:07;;;;;;;2.97;0.70;;;;;;;16.37;49.26;97953.53;10572624;27;20040;-77
2023/06/28 22:06:28;;;;;;;2.03;0.60;;;;;;;16.33;49.56;97953.34;10590465;27;20104;-71
2023/06/28 22:11:52;;;;;;;1.60;0.50;;;;;;;16.34;49.67;97943.53;10594838;27;20073;-71
2023/06/28 22:17:12;;;;;;;2.85;0.70;;;;;;;16.36;49.93;97943.63;10591809;27;20047;-73
2023/06/28 22:22:33;;;;;;;5.55;0.70;;;;;;;16.37;49.80;97953.53;10610197;27;20039;-72
2023/06/28 22:27:54;;;;;;;3.70;0.82;;;;;;;16.34;50.42;97949.16;10583429;27;20104;-72
2023/06/28 22:33:15;;;;;;;4.10;0.90;;;;;;;16.27;50.38;97951.69;10571768;28;20477;-71
2023/06/28 22:38:35;;;;;;;2.53;0.88;;;;;;;16.24;50.46;97952.94;10579341;27;20046;-71
2023/06/28 22:44:10;;;;;;;4.20;0.50;;;;;;;16.19;50.66;97944.91;10561417;27;20039;-72
2023/06/28 22:49:33;;;;;;;3.55;0.85;;;;;;;16.14;50.81;97948.91;10598219;27;20043;-72
2023/06/28 22:54:53;;;;;;;2.50;0.57;;;;;;;16.14;50.79;97949.63;10596705;27;20078;-72
2023/06/28 23:00:14;;;;;;;1.63;0.50;;;;;;;16.12;51.02;97941.09;10556595;28;20397;-72
2023/06/28 23:05:38;;;;;;;7.32;0.80;;;;;;;16.10;51.22;97945.88;10589528;27;20079;-72
2023/06/28 23:11:00;;;;;;;2.67;0.50;;;;;;;16.11;51.15;97947.34;10556763;27;20089;-72
2023/06/28 23:16:22;;;;;;;2.58;0.75;;;;;;;16.05;51.22;97944.97;10626020;27;20438;-72
2023/06/28 23:21:46;;;;;;;1.83;0.60;;;;;;;16.01;51.30;97947.56;10598129;27;20096;-71
2023/06/28 23:27:07;;;;;;;5.13;0.90;;;;;;;16.03;51.76;97950.50;10597306;27;20100;-71
2023/06/28 23:32:28;;;;;;;1.98;0.68;;;;;;;16.02;51.59;97949.78;10595980;27;20061;-72
2023/06/28 23:37:49;;;;;;;1.70;0.60;;;;;;;16.01;51.73;97953.19;10548898;27;20035;-71
2023/06/28 23:43:10;;;;;;;5.05;0.70;;;;;;;15.98;51.78;97943.22;10568607;28;20047;-72
2023/06/28 23:48:34;;;;;;;2.22;0.88;;;;;;;15.98;51.63;97948.84;10554431;28;20482;-72
2023/06/28 23:53:59;;;;;;;3.17;0.75;;;;;;;15.93;51.66;97944.38;10578747;27;20050;-72
2023/06/28 23:59:20;;;;;;;4.18;0.80;;;;;;;15.90;51.92;97943.53;10625981;27;20035;-71
